Ephrata, WA

8:53 PM PDT on August 31, 2016 (GMT -0700)
CloudviewEphrata | | Change Station

Elev 1263 ft 47.34 °N, 119.54 °W | Updated 26 seconds ago

Clear
Clear
73.0 °F
Feels Like 77 °F
N
7.6
Wind Variable Wind from WSW
Gusts 9.8 mph

Today
High -- | Low -- °F
--% Chance of Precip.
Yesterday
High -- | Low -- °F
Precip. -- in
Pressure 29.81 in
Visibility 10.0 miles
Clouds Clear
Heat Index 77 °F
Dew Point 53 °F
Humidity 49%
Rainfall 0.00 in
Snow Depth Not available.
6:16 AM 7:38 PM
Waning Crescent, 0% visible
METAR KEPH 010253Z AUTO 19007KT 10SM CLR 22/07 A2982 RMK AO2 SLP093 T02220072 53002
Pressure 29.81 in
Visibility 10.0 miles
Clouds Clear
Heat Index 77 °F
Dew Point 53 °F
Humidity 49%
Rainfall 0.00 in
Snow Depth Not available.
6:16 AM 7:38 PM
Waning Crescent, 0% visible
METAR KEPH 010253Z AUTO 19007KT 10SM CLR 22/07 A2982 RMK AO2 SLP093 T02220072 53002

10-Day Weather Forecast

Almanac

Astronomy

Aug. 31, 2016 Rise Set
Actual Time
Civil Twilight
Nautical Twilight
Astronomical Twilight
Moon
Length of Visible Light
Length of Day
Tomorrow will be .
, % of the Moon is Illuminated

Today's Extremes

State Highs State Lows

Community

WunderPhotos

Upload Photos

1,936,291 photos uploaded!

WunderBlog® & News

Nearby

Air Quality

  Air Quality AQ Index Pollutant
Not available.

Snow Depth

Station Depth Elevation

Earthquake Activity

City Distance Mag. Time & Date
Minimum magnitude displayed is 2.5.

Coastal Water Temperatures

Place Temperature

Stations

Nearby Weather Stations

Station Location Temp. Windchill Dew Point Humidity Wind Precip. Elev Updated Type
                   

Watches & Warnings

There are currently no watches in effect.